sensor_id;sensor_type;location;lat;lon;timestamp;temperature;humidity
37646;DHT22;23489;49.600;6.138;2023-06-10T00:02:07;19.60;89.30
37646;DHT22;23489;49.600;6.138;2023-06-10T00:04:33;19.60;89.40
37646;DHT22;23489;49.600;6.138;2023-06-10T00:06:59;19.60;89.60
37646;DHT22;23489;49.600;6.138;2023-06-10T00:09:25;19.60;89.80
37646;DHT22;23489;49.600;6.138;2023-06-10T00:11:52;19.50;89.80
37646;DHT22;23489;49.600;6.138;2023-06-10T00:14:17;19.60;89.90
37646;DHT22;23489;49.600;6.138;2023-06-10T00:16:43;19.50;90.00
37646;DHT22;23489;49.600;6.138;2023-06-10T00:19:10;19.50;90.10
37646;DHT22;23489;49.600;6.138;2023-06-10T00:21:39;19.50;90.10
37646;DHT22;23489;49.600;6.138;2023-06-10T00:24:10;19.50;90.20
37646;DHT22;23489;49.600;6.138;2023-06-10T00:26:38;19.50;90.30
37646;DHT22;23489;49.600;6.138;2023-06-10T00:29:03;19.50;90.40
37646;DHT22;23489;49.600;6.138;2023-06-10T00:31:29;19.40;90.50
37646;DHT22;23489;49.600;6.138;2023-06-10T00:33:55;19.40;90.50
37646;DHT22;23489;49.600;6.138;2023-06-10T00:36:21;19.50;90.60
37646;DHT22;23489;49.600;6.138;2023-06-10T00:38:47;19.50;90.60
37646;DHT22;23489;49.600;6.138;2023-06-10T00:41:13;19.50;90.70
37646;DHT22;23489;49.600;6.138;2023-06-10T00:43:39;19.50;90.70
37646;DHT22;23489;49.600;6.138;2023-06-10T00:46:04;19.60;90.90
37646;DHT22;23489;49.600;6.138;2023-06-10T00:48:30;19.50;90.90
37646;DHT22;23489;49.600;6.138;2023-06-10T00:50:57;19.60;91.00
37646;DHT22;23489;49.600;6.138;2023-06-10T00:53:23;19.50;91.00
37646;DHT22;23489;49.600;6.138;2023-06-10T00:55:50;19.50;91.20
37646;DHT22;23489;49.600;6.138;2023-06-10T00:58:16;19.50;91.30
37646;DHT22;23489;49.600;6.138;2023-06-10T01:00:42;19.50;91.50
37646;DHT22;23489;49.600;6.138;2023-06-10T01:03:08;19.50;91.60
37646;DHT22;23489;49.600;6.138;2023-06-10T01:05:37;19.50;91.80
37646;DHT22;23489;49.600;6.138;2023-06-10T01:08:09;19.50;92.00
37646;DHT22;23489;49.600;6.138;2023-06-10T01:11:13;19.40;92.10
37646;DHT22;23489;49.600;6.138;2023-06-10T01:13:36;19.40;92.30
37646;DHT22;23489;49.600;6.138;2023-06-10T01:16:03;19.40;92.50
37646;DHT22;23489;49.600;6.138;2023-06-10T01:18:31;19.50;92.50
37646;DHT22;23489;49.600;6.138;2023-06-10T01:20:58;19.50;92.60
37646;DHT22;23489;49.600;6.138;2023-06-10T01:23:23;19.40;92.70
37646;DHT22;23489;49.600;6.138;2023-06-10T01:25:57;19.40;92.80
37646;DHT22;23489;49.600;6.138;2023-06-10T01:28:36;19.40;93.00
37646;DHT22;23489;49.600;6.138;2023-06-10T01:33:47;19.40;93.20
37646;DHT22;23489;49.600;6.138;2023-06-10T01:36:15;19.30;93.40
37646;DHT22;23489;49.600;6.138;2023-06-10T01:38:46;19.30;93.50
37646;DHT22;23489;49.600;6.138;2023-06-10T01:41:16;19.30;93.70
37646;DHT22;23489;49.600;6.138;2023-06-10T01:43:44;19.30;93.90
37646;DHT22;23489;49.600;6.138;2023-06-10T01:46:10;19.20;94.10
37646;DHT22;23489;49.600;6.138;2023-06-10T01:48:37;19.20;94.30
37646;DHT22;23489;49.600;6.138;2023-06-10T01:51:03;19.10;94.40
37646;DHT22;23489;49.600;6.138;2023-06-10T01:53:29;19.10;94.60
37646;DHT22;23489;49.600;6.138;2023-06-10T01:55:55;19.10;94.80
37646;DHT22;23489;49.600;6.138;2023-06-10T01:58:20;19.10;94.90
37646;DHT22;23489;49.600;6.138;2023-06-10T02:00:46;19.10;95.10
37646;DHT22;23489;49.600;6.138;2023-06-10T02:03:12;19.10;95.20
37646;DHT22;23489;49.600;6.138;2023-06-10T02:05:37;19.00;95.40
37646;DHT22;23489;49.600;6.138;2023-06-10T02:08:03;19.00;95.70
37646;DHT22;23489;49.600;6.138;2023-06-10T02:10:29;19.00;95.90
37646;DHT22;23489;49.600;6.138;2023-06-10T02:12:56;18.90;96.00
37646;DHT22;23489;49.600;6.138;2023-06-10T02:15:22;18.90;96.40
37646;DHT22;23489;49.600;6.138;2023-06-10T02:17:47;18.80;96.60
37646;DHT22;23489;49.600;6.138;2023-06-10T02:20:14;18.80;96.80
37646;DHT22;23489;49.600;6.138;2023-06-10T02:22:40;18.70;97.00
37646;DHT22;23489;49.600;6.138;2023-06-10T02:25:07;18.70;97.20
37646;DHT22;23489;49.600;6.138;2023-06-10T02:27:33;18.70;97.40
37646;DHT22;23489;49.600;6.138;2023-06-10T02:29:59;18.70;97.50
37646;DHT22;23489;49.600;6.138;2023-06-10T02:32:25;18.70;97.60
37646;DHT22;23489;49.600;6.138;2023-06-10T02:34:52;18.70;97.90
37646;DHT22;23489;49.600;6.138;2023-06-10T02:37:19;18.60;98.20
37646;DHT22;23489;49.600;6.138;2023-06-10T02:39:46;18.50;98.30
37646;DHT22;23489;49.600;6.138;2023-06-10T02:42:11;18.50;98.60
37646;DHT22;23489;49.600;6.138;2023-06-10T02:44:38;18.40;98.70
37646;DHT22;23489;49.600;6.138;2023-06-10T02:47:04;18.40;99.00
37646;DHT22;23489;49.600;6.138;2023-06-10T02:49:32;18.40;99.30
37646;DHT22;23489;49.600;6.138;2023-06-10T02:51:59;18.30;99.60
37646;DHT22;23489;49.600;6.138;2023-06-10T02:54:25;18.30;99.80
37646;DHT22;23489;49.600;6.138;2023-06-10T02:56:53;18.20;99.90
37646;DHT22;23489;49.600;6.138;2023-06-10T02:59:23;18.20;99.90
37646;DHT22;23489;49.600;6.138;2023-06-10T03:01:49;18.20;99.90
37646;DHT22;23489;49.600;6.138;2023-06-10T03:04:14;18.20;99.90
37646;DHT22;23489;49.600;6.138;2023-06-10T03:06:46;18.10;99.90
37646;DHT22;23489;49.600;6.138;2023-06-10T03:09:21;18.10;99.90
37646;DHT22;23489;49.600;6.138;2023-06-10T03:11:50;18.10;99.90
37646;DHT22;23489;49.600;6.138;2023-06-10T03:14:16;18.00;99.90
37646;DHT22;23489;49.600;6.138;2023-06-10T03:16:42;18.00;99.90
37646;DHT22;23489;49.600;6.138;2023-06-10T03:19:08;18.00;99.90
37646;DHT22;23489;49.600;6.138;2023-06-10T03:21:35;17.90;99.90
37646;DHT22;23489;49.600;6.138;2023-06-10T03:24:04;17.90;99.90
37646;DHT22;23489;49.600;6.138;2023-06-10T03:26:31;17.90;99.90
37646;DHT22;23489;49.600;6.138;2023-06-10T03:28:58;17.80;99.90
37646;DHT22;23489;49.600;6.138;2023-06-10T03:31:24;17.80;99.90
37646;DHT22;23489;49.600;6.138;2023-06-10T03:33:51;17.80;99.90
37646;DHT22;23489;49.600;6.138;2023-06-10T03:36:17;17.80;99.90
37646;DHT22;23489;49.600;6.138;2023-06-10T03:38:43;17.90;99.90
37646;DHT22;23489;49.600;6.138;2023-06-10T03:41:09;17.80;99.90
37646;DHT22;23489;49.600;6.138;2023-06-10T03:43:37;17.90;99.90
37646;DHT22;23489;49.600;6.138;2023-06-10T03:46:04;17.90;99.90
37646;DHT22;23489;49.600;6.138;2023-06-10T03:48:31;17.90;99.90
37646;DHT22;23489;49.600;6.138;2023-06-10T03:50:56;17.90;99.90
37646;DHT22;23489;49.600;6.138;2023-06-10T03:53:22;17.90;99.90
37646;DHT22;23489;49.600;6.138;2023-06-10T03:55:48;17.90;99.90
37646;DHT22;23489;49.600;6.138;2023-06-10T03:58:16;17.90;99.90
37646;DHT22;23489;49.600;6.138;2023-06-10T04:00:43;17.80;99.90
37646;DHT22;23489;49.600;6.138;2023-06-10T04:03:10;17.80;99.90
37646;DHT22;23489;49.600;6.138;2023-06-10T04:05:41;17.90;99.90
37646;DHT22;23489;49.600;6.138;2023-06-10T04:08:08;17.90;99.90
37646;DHT22;23489;49.600;6.138;2023-06-10T04:10:33;17.90;99.90
37646;DHT22;23489;49.600;6.138;2023-06-10T04:13:00;18.00;99.90
37646;DHT22;23489;49.600;6.138;2023-06-10T04:15:30;18.00;99.90
37646;DHT22;23489;49.600;6.138;2023-06-10T04:18:00;18.10;99.90
37646;DHT22;23489;49.600;6.138;2023-06-10T04:20:27;18.10;99.90
37646;DHT22;23489;49.600;6.138;2023-06-10T04:22:52;18.20;99.90
37646;DHT22;23489;49.600;6.138;2023-06-10T04:25:19;18.20;99.90
37646;DHT22;23489;49.600;6.138;2023-06-10T04:27:45;18.20;99.90
37646;DHT22;23489;49.600;6.138;2023-06-10T04:30:11;18.30;99.90
37646;DHT22;23489;49.600;6.138;2023-06-10T04:32:38;18.40;99.90
37646;DHT22;23489;49.600;6.138;2023-06-10T04:35:07;18.40;99.90
37646;DHT22;23489;49.600;6.138;2023-06-10T04:37:33;18.40;99.90
37646;DHT22;23489;49.600;6.138;2023-06-10T04:39:59;18.50;99.90
37646;DHT22;23489;49.600;6.138;2023-06-10T04:42:26;18.60;99.90
37646;DHT22;23489;49.600;6.138;2023-06-10T04:44:52;18.70;99.90
37646;DHT22;23489;49.600;6.138;2023-06-10T04:47:18;18.80;99.90
37646;DHT22;23489;49.600;6.138;2023-06-10T04:49:44;18.80;99.90
37646;DHT22;23489;49.600;6.138;2023-06-10T04:52:10;18.90;99.90
37646;DHT22;23489;49.600;6.138;2023-06-10T04:54:39;18.90;99.90
37646;DHT22;23489;49.600;6.138;2023-06-10T04:57:04;19.00;99.90
37646;DHT22;23489;49.600;6.138;2023-06-10T04:59:33;19.30;99.90
37646;DHT22;23489;49.600;6.138;2023-06-10T05:01:58;19.80;99.90
37646;DHT22;23489;49.600;6.138;2023-06-10T05:04:24;20.10;99.90
37646;DHT22;23489;49.600;6.138;2023-06-10T05:06:50;20.30;99.90
37646;DHT22;23489;49.600;6.138;2023-06-10T05:09:15;20.20;99.70
37646;DHT22;23489;49.600;6.138;2023-06-10T05:11:42;20.20;99.60
37646;DHT22;23489;49.600;6.138;2023-06-10T05:14:07;20.30;99.60
37646;DHT22;23489;49.600;6.138;2023-06-10T05:16:33;20.40;99.30
37646;DHT22;23489;49.600;6.138;2023-06-10T05:18:58;20.50;99.20
37646;DHT22;23489;49.600;6.138;2023-06-10T05:21:24;20.40;99.20
37646;DHT22;23489;49.600;6.138;2023-06-10T05:23:50;20.40;99.20
37646;DHT22;23489;49.600;6.138;2023-06-10T05:26:15;20.40;99.30
37646;DHT22;23489;49.600;6.138;2023-06-10T05:28:43;20.20;99.30
37646;DHT22;23489;49.600;6.138;2023-06-10T05:31:08;20.10;99.60
37646;DHT22;23489;49.600;6.138;2023-06-10T05:33:34;20.20;99.50
37646;DHT22;23489;49.600;6.138;2023-06-10T05:35:59;20.30;99.40
37646;DHT22;23489;49.600;6.138;2023-06-10T05:38:25;20.30;99.50
37646;DHT22;23489;49.600;6.138;2023-06-10T05:40:51;20.40;99.40
37646;DHT22;23489;49.600;6.138;2023-06-10T05:43:16;20.40;99.30
37646;DHT22;23489;49.600;6.138;2023-06-10T05:45:42;20.50;99.30
37646;DHT22;23489;49.600;6.138;2023-06-10T05:48:08;20.60;99.20
37646;DHT22;23489;49.600;6.138;2023-06-10T05:50:34;20.80;99.10
37646;DHT22;23489;49.600;6.138;2023-06-10T05:53:04;21.00;98.80
37646;DHT22;23489;49.600;6.138;2023-06-10T05:55:32;21.10;98.50
37646;DHT22;23489;49.600;6.138;2023-06-10T05:58:00;21.00;98.40
37646;DHT22;23489;49.600;6.138;2023-06-10T06:00:26;21.10;98.40
37646;DHT22;23489;49.600;6.138;2023-06-10T06:02:52;21.30;98.10
37646;DHT22;23489;49.600;6.138;2023-06-10T06:05:19;21.80;97.50
37646;DHT22;23489;49.600;6.138;2023-06-10T06:07:45;22.10;97.00
37646;DHT22;23489;49.600;6.138;2023-06-10T06:10:10;22.70;96.10
37646;DHT22;23489;49.600;6.138;2023-06-10T06:12:36;23.20;95.30
37646;DHT22;23489;49.600;6.138;2023-06-10T06:15:02;24.40;93.00
37646;DHT22;23489;49.600;6.138;2023-06-10T06:17:28;25.40;91.40
37646;DHT22;23489;49.600;6.138;2023-06-10T06:19:53;26.60;86.90
37646;DHT22;23489;49.600;6.138;2023-06-10T06:22:19;27.80;82.70
37646;DHT22;23489;49.600;6.138;2023-06-10T06:24:47;28.10;80.10
37646;DHT22;23489;49.600;6.138;2023-06-10T06:27:13;28.50;79.20
37646;DHT22;23489;49.600;6.138;2023-06-10T06:29:38;29.10;75.10
37646;DHT22;23489;49.600;6.138;2023-06-10T06:32:04;29.40;74.20
37646;DHT22;23489;49.600;6.138;2023-06-10T06:34:30;29.70;71.80
37646;DHT22;23489;49.600;6.138;2023-06-10T06:36:57;30.20;70.50
37646;DHT22;23489;49.600;6.138;2023-06-10T06:39:23;30.00;69.60
37646;DHT22;23489;49.600;6.138;2023-06-10T06:41:49;30.00;69.20
37646;DHT22;23489;49.600;6.138;2023-06-10T06:44:15;30.40;69.10
37646;DHT22;23489;49.600;6.138;2023-06-10T06:46:43;30.80;67.70
37646;DHT22;23489;49.600;6.138;2023-06-10T06:49:08;31.30;66.50
37646;DHT22;23489;49.600;6.138;2023-06-10T06:51:34;32.10;63.90
37646;DHT22;23489;49.600;6.138;2023-06-10T06:54:00;31.90;63.80
37646;DHT22;23489;49.600;6.138;2023-06-10T06:56:26;31.80;63.50
37646;DHT22;23489;49.600;6.138;2023-06-10T06:58:53;32.20;62.50
37646;DHT22;23489;49.600;6.138;2023-06-10T07:01:19;32.30;61.50
37646;DHT22;23489;49.600;6.138;2023-06-10T07:03:44;32.60;61.00
37646;DHT22;23489;49.600;6.138;2023-06-10T07:06:12;32.80;61.20
37646;DHT22;23489;49.600;6.138;2023-06-10T07:08:37;33.60;59.50
37646;DHT22;23489;49.600;6.138;2023-06-10T07:11:03;33.70;58.50
37646;DHT22;23489;49.600;6.138;2023-06-10T07:13:28;33.80;57.90
37646;DHT22;23489;49.600;6.138;2023-06-10T07:15:54;33.70;58.10
37646;DHT22;23489;49.600;6.138;2023-06-10T07:18:20;33.50;58.10
37646;DHT22;23489;49.600;6.138;2023-06-10T07:20:45;33.80;57.90
37646;DHT22;23489;49.600;6.138;2023-06-10T07:23:11;34.30;57.30
37646;DHT22;23489;49.600;6.138;2023-06-10T07:25:37;33.80;57.70
37646;DHT22;23489;49.600;6.138;2023-06-10T07:28:02;34.10;56.90
37646;DHT22;23489;49.600;6.138;2023-06-10T07:30:28;34.10;56.60
37646;DHT22;23489;49.600;6.138;2023-06-10T07:32:54;34.40;55.70
37646;DHT22;23489;49.600;6.138;2023-06-10T07:35:19;33.70;57.20
37646;DHT22;23489;49.600;6.138;2023-06-10T07:37:45;34.70;55.60
37646;DHT22;23489;49.600;6.138;2023-06-10T07:40:11;35.50;54.30
37646;DHT22;23489;49.600;6.138;2023-06-10T07:42:36;34.90;54.60
37646;DHT22;23489;49.600;6.138;2023-06-10T07:45:03;35.00;54.00
37646;DHT22;23489;49.600;6.138;2023-06-10T07:47:30;35.00;54.30
37646;DHT22;23489;49.600;6.138;2023-06-10T07:49:55;34.90;53.60
37646;DHT22;23489;49.600;6.138;2023-06-10T07:52:21;34.60;54.20
37646;DHT22;23489;49.600;6.138;2023-06-10T07:54:47;34.20;54.30
37646;DHT22;23489;49.600;6.138;2023-06-10T07:57:12;34.80;53.70
37646;DHT22;23489;49.600;6.138;2023-06-10T07:59:38;35.70;52.60
37646;DHT22;23489;49.600;6.138;2023-06-10T08:02:04;36.40;52.40
37646;DHT22;23489;49.600;6.138;2023-06-10T08:04:30;36.50;51.80
37646;DHT22;23489;49.600;6.138;2023-06-10T08:06:56;36.10;52.20
37646;DHT22;23489;49.600;6.138;2023-06-10T08:09:21;37.00;50.80
37646;DHT22;23489;49.600;6.138;2023-06-10T08:11:48;36.50;50.30
37646;DHT22;23489;49.600;6.138;2023-06-10T08:14:15;37.00;49.80
37646;DHT22;23489;49.600;6.138;2023-06-10T08:16:42;36.50;50.10
37646;DHT22;23489;49.600;6.138;2023-06-10T08:19:08;35.80;50.90
37646;DHT22;23489;49.600;6.138;2023-06-10T08:21:35;35.90;51.00
37646;DHT22;23489;49.600;6.138;2023-06-10T08:24:02;35.50;50.90
37646;DHT22;23489;49.600;6.138;2023-06-10T08:26:28;34.80;52.10
37646;DHT22;23489;49.600;6.138;2023-06-10T08:28:53;35.30;51.80
37646;DHT22;23489;49.600;6.138;2023-06-10T08:31:21;35.80;51.80
37646;DHT22;23489;49.600;6.138;2023-06-10T08:33:46;35.30;51.70
37646;DHT22;23489;49.600;6.138;2023-06-10T08:36:12;35.40;52.00
37646;DHT22;23489;49.600;6.138;2023-06-10T08:38:38;36.00;51.30
37646;DHT22;23489;49.600;6.138;2023-06-10T08:41:05;36.90;49.50
37646;DHT22;23489;49.600;6.138;2023-06-10T08:43:42;36.60;49.60
37646;DHT22;23489;49.600;6.138;2023-06-10T08:46:09;36.10;50.50
37646;DHT22;23489;49.600;6.138;2023-06-10T08:48:41;36.20;50.10
37646;DHT22;23489;49.600;6.138;2023-06-10T08:51:10;35.60;51.20
37646;DHT22;23489;49.600;6.138;2023-06-10T08:53:37;36.70;50.70
37646;DHT22;23489;49.600;6.138;2023-06-10T08:56:04;36.80;49.90
37646;DHT22;23489;49.600;6.138;2023-06-10T08:58:32;37.50;49.00
37646;DHT22;23489;49.600;6.138;2023-06-10T09:00:59;37.60;48.60
37646;DHT22;23489;49.600;6.138;2023-06-10T09:03:25;37.50;48.00
37646;DHT22;23489;49.600;6.138;2023-06-10T09:05:51;37.90;48.00
37646;DHT22;23489;49.600;6.138;2023-06-10T09:08:17;38.20;47.20
37646;DHT22;23489;49.600;6.138;2023-06-10T09:10:43;38.70;47.50
37646;DHT22;23489;49.600;6.138;2023-06-10T09:13:09;39.00;47.30
37646;DHT22;23489;49.600;6.138;2023-06-10T09:15:34;39.70;45.60
37646;DHT22;23489;49.600;6.138;2023-06-10T09:18:00;38.40;46.80
37646;DHT22;23489;49.600;6.138;2023-06-10T09:20:26;37.80;47.80
37646;DHT22;23489;49.600;6.138;2023-06-10T09:22:51;38.00;47.20
37646;DHT22;23489;49.600;6.138;2023-06-10T09:25:17;37.80;47.60
37646;DHT22;23489;49.600;6.138;2023-06-10T09:27:50;37.90;47.40
37646;DHT22;23489;49.600;6.138;2023-06-10T09:32:53;36.30;48.30
37646;DHT22;23489;49.600;6.138;2023-06-10T09:35:21;35.60;49.30
37646;DHT22;23489;49.600;6.138;2023-06-10T09:37:51;36.00;49.00
37646;DHT22;23489;49.600;6.138;2023-06-10T09:40:17;37.10;47.40
37646;DHT22;23489;49.600;6.138;2023-06-10T09:42:43;36.20;48.30
37646;DHT22;23489;49.600;6.138;2023-06-10T09:45:09;35.60;49.00
37646;DHT22;23489;49.600;6.138;2023-06-10T09:47:35;34.30;50.00
37646;DHT22;23489;49.600;6.138;2023-06-10T09:50:00;34.00;50.70
37646;DHT22;23489;49.600;6.138;2023-06-10T09:52:28;34.00;50.80
37646;DHT22;23489;49.600;6.138;2023-06-10T09:54:59;33.80;50.90
37646;DHT22;23489;49.600;6.138;2023-06-10T09:57:26;33.80;50.90
37646;DHT22;23489;49.600;6.138;2023-06-10T09:59:55;33.80;50.60
37646;DHT22;23489;49.600;6.138;2023-06-10T10:02:21;34.20;50.20
37646;DHT22;23489;49.600;6.138;2023-06-10T10:04:47;34.10;50.50
37646;DHT22;23489;49.600;6.138;2023-06-10T10:07:13;34.20;50.40
37646;DHT22;23489;49.600;6.138;2023-06-10T10:09:40;34.60;49.50
37646;DHT22;23489;49.600;6.138;2023-06-10T10:12:09;35.20;48.20
37646;DHT22;23489;49.600;6.138;2023-06-10T10:14:37;35.80;48.00
37646;DHT22;23489;49.600;6.138;2023-06-10T10:17:05;36.70;45.20
37646;DHT22;23489;49.600;6.138;2023-06-10T10:19:46;36.10;44.30
37646;DHT22;23489;49.600;6.138;2023-06-10T10:22:20;35.30;45.50
37646;DHT22;23489;49.600;6.138;2023-06-10T10:24:52;34.80;45.20
37646;DHT22;23489;49.600;6.138;2023-06-10T10:27:25;35.50;45.80
37646;DHT22;23489;49.600;6.138;2023-06-10T10:29:54;35.30;45.50
37646;DHT22;23489;49.600;6.138;2023-06-10T10:32:27;34.30;47.40
37646;DHT22;23489;49.600;6.138;2023-06-10T10:35:08;34.40;47.10
37646;DHT22;23489;49.600;6.138;2023-06-10T10:37:35;35.50;45.60
37646;DHT22;23489;49.600;6.138;2023-06-10T10:40:02;36.50;43.30
37646;DHT22;23489;49.600;6.138;2023-06-10T10:42:29;35.90;44.00
37646;DHT22;23489;49.600;6.138;2023-06-10T10:44:56;35.80;43.70
37646;DHT22;23489;49.600;6.138;2023-06-10T10:47:22;35.40;44.00
37646;DHT22;23489;49.600;6.138;2023-06-10T10:49:52;35.40;44.40
37646;DHT22;23489;49.600;6.138;2023-06-10T10:52:19;35.50;44.60
37646;DHT22;23489;49.600;6.138;2023-06-10T10:54:46;34.70;45.20
37646;DHT22;23489;49.600;6.138;2023-06-10T10:57:18;33.30;46.70
37646;DHT22;23489;49.600;6.138;2023-06-10T10:59:59;31.70;48.80
37646;DHT22;23489;49.600;6.138;2023-06-10T11:02:43;31.20;49.60
37646;DHT22;23489;49.600;6.138;2023-06-10T11:05:16;31.30;49.60
37646;DHT22;23489;49.600;6.138;2023-06-10T11:07:51;31.20;49.60
37646;DHT22;23489;49.600;6.138;2023-06-10T11:10:17;30.60;50.00
37646;DHT22;23489;49.600;6.138;2023-06-10T11:15:22;29.60;51.00
37646;DHT22;23489;49.600;6.138;2023-06-10T11:20:52;29.20;51.90
37646;DHT22;23489;49.600;6.138;2023-06-10T11:28:39;29.20;49.00
37646;DHT22;23489;49.600;6.138;2023-06-10T11:31:05;29.40;49.60
37646;DHT22;23489;49.600;6.138;2023-06-10T11:33:30;29.60;49.10
37646;DHT22;23489;49.600;6.138;2023-06-10T11:35:56;29.40;49.80
37646;DHT22;23489;49.600;6.138;2023-06-10T11:38:21;29.40;49.60
37646;DHT22;23489;49.600;6.138;2023-06-10T11:40:50;29.50;49.20
37646;DHT22;23489;49.600;6.138;2023-06-10T11:43:17;29.40;49.30
37646;DHT22;23489;49.600;6.138;2023-06-10T11:45:43;29.50;49.40
37646;DHT22;23489;49.600;6.138;2023-06-10T11:48:09;29.30;49.30
37646;DHT22;23489;49.600;6.138;2023-06-10T11:50:34;29.20;49.50
37646;DHT22;23489;49.600;6.138;2023-06-10T11:53:00;29.30;49.40
37646;DHT22;23489;49.600;6.138;2023-06-10T11:55:47;29.20;49.80
37646;DHT22;23489;49.600;6.138;2023-06-10T11:58:20;29.20;49.80
37646;DHT22;23489;49.600;6.138;2023-06-10T12:00:46;29.10;49.70
37646;DHT22;23489;49.600;6.138;2023-06-10T12:03:12;29.10;49.70
37646;DHT22;23489;49.600;6.138;2023-06-10T12:05:38;29.10;49.60
37646;DHT22;23489;49.600;6.138;2023-06-10T12:08:09;29.00;49.10
37646;DHT22;23489;49.600;6.138;2023-06-10T12:10:39;29.20;49.30
37646;DHT22;23489;49.600;6.138;2023-06-10T12:13:05;29.30;49.20
37646;DHT22;23489;49.600;6.138;2023-06-10T12:15:30;29.20;49.50
37646;DHT22;23489;49.600;6.138;2023-06-10T12:17:57;29.20;49.40
37646;DHT22;23489;49.600;6.138;2023-06-10T12:20:29;29.00;48.90
37646;DHT22;23489;49.600;6.138;2023-06-10T12:22:55;29.20;49.20
37646;DHT22;23489;49.600;6.138;2023-06-10T12:25:24;29.20;49.00
37646;DHT22;23489;49.600;6.138;2023-06-10T12:27:51;29.20;47.90
37646;DHT22;23489;49.600;6.138;2023-06-10T12:30:19;29.20;48.00
37646;DHT22;23489;49.600;6.138;2023-06-10T12:32:46;29.10;48.60
37646;DHT22;23489;49.600;6.138;2023-06-10T12:35:13;28.80;48.90
37646;DHT22;23489;49.600;6.138;2023-06-10T12:37:39;28.60;49.10
37646;DHT22;23489;49.600;6.138;2023-06-10T12:40:05;28.70;49.40
37646;DHT22;23489;49.600;6.138;2023-06-10T12:42:31;28.70;48.40
37646;DHT22;23489;49.600;6.138;2023-06-10T12:44:58;28.80;49.20
37646;DHT22;23489;49.600;6.138;2023-06-10T12:47:31;28.80;48.50
37646;DHT22;23489;49.600;6.138;2023-06-10T12:49:58;28.80;48.40
37646;DHT22;23489;49.600;6.138;2023-06-10T12:52:24;29.00;49.00
37646;DHT22;23489;49.600;6.138;2023-06-10T12:54:50;28.90;48.90
37646;DHT22;23489;49.600;6.138;2023-06-10T12:57:16;29.00;48.60
37646;DHT22;23489;49.600;6.138;2023-06-10T12:59:42;29.10;48.00
37646;DHT22;23489;49.600;6.138;2023-06-10T13:02:15;29.10;48.20
37646;DHT22;23489;49.600;6.138;2023-06-10T13:04:40;29.10;48.20
37646;DHT22;23489;49.600;6.138;2023-06-10T13:07:07;29.20;48.40
37646;DHT22;23489;49.600;6.138;2023-06-10T13:09:33;29.30;48.20
37646;DHT22;23489;49.600;6.138;2023-06-10T13:11:58;29.30;47.90
37646;DHT22;23489;49.600;6.138;2023-06-10T13:14:25;29.30;48.20
37646;DHT22;23489;49.600;6.138;2023-06-10T13:16:50;29.40;48.70
37646;DHT22;23489;49.600;6.138;2023-06-10T13:19:16;29.60;48.90
37646;DHT22;23489;49.600;6.138;2023-06-10T13:21:41;29.70;49.90
37646;DHT22;23489;49.600;6.138;2023-06-10T13:24:07;29.50;49.50
37646;DHT22;23489;49.600;6.138;2023-06-10T13:26:32;29.50;49.50
37646;DHT22;23489;49.600;6.138;2023-06-10T13:28:58;29.40;49.90
37646;DHT22;23489;49.600;6.138;2023-06-10T13:31:23;29.50;50.60
37646;DHT22;23489;49.600;6.138;2023-06-10T13:33:49;29.30;50.80
37646;DHT22;23489;49.600;6.138;2023-06-10T13:36:14;29.30;50.70
37646;DHT22;23489;49.600;6.138;2023-06-10T13:38:40;29.30;50.30
37646;DHT22;23489;49.600;6.138;2023-06-10T13:41:05;29.20;49.80
37646;DHT22;23489;49.600;6.138;2023-06-10T13:43:31;29.30;49.10
37646;DHT22;23489;49.600;6.138;2023-06-10T13:45:57;29.30;48.80
37646;DHT22;23489;49.600;6.138;2023-06-10T13:48:22;29.40;48.80
37646;DHT22;23489;49.600;6.138;2023-06-10T13:50:48;29.20;48.90
37646;DHT22;23489;49.600;6.138;2023-06-10T13:53:13;29.20;49.50
37646;DHT22;23489;49.600;6.138;2023-06-10T13:55:40;29.30;50.10
37646;DHT22;23489;49.600;6.138;2023-06-10T13:58:05;29.30;50.00
37646;DHT22;23489;49.600;6.138;2023-06-10T14:00:31;29.30;50.40
37646;DHT22;23489;49.600;6.138;2023-06-10T14:02:57;29.30;48.80
37646;DHT22;23489;49.600;6.138;2023-06-10T14:05:22;29.30;49.50
37646;DHT22;23489;49.600;6.138;2023-06-10T14:07:48;29.40;49.60
37646;DHT22;23489;49.600;6.138;2023-06-10T14:10:14;29.50;49.80
37646;DHT22;23489;49.600;6.138;2023-06-10T14:12:39;29.70;50.50
37646;DHT22;23489;49.600;6.138;2023-06-10T14:15:05;29.60;50.40
37646;DHT22;23489;49.600;6.138;2023-06-10T14:17:30;29.30;50.40
37646;DHT22;23489;49.600;6.138;2023-06-10T14:19:56;28.90;50.20
37646;DHT22;23489;49.600;6.138;2023-06-10T14:22:21;28.60;51.20
37646;DHT22;23489;49.600;6.138;2023-06-10T14:24:47;28.30;51.80
37646;DHT22;23489;49.600;6.138;2023-06-10T14:27:12;28.30;51.80
37646;DHT22;23489;49.600;6.138;2023-06-10T14:29:38;28.30;51.70
37646;DHT22;23489;49.600;6.138;2023-06-10T14:32:03;28.40;51.70
37646;DHT22;23489;49.600;6.138;2023-06-10T14:34:29;28.50;51.10
37646;DHT22;23489;49.600;6.138;2023-06-10T14:37:01;28.50;51.30
37646;DHT22;23489;49.600;6.138;2023-06-10T14:39:29;28.60;51.70
37646;DHT22;23489;49.600;6.138;2023-06-10T14:41:54;28.70;51.10
37646;DHT22;23489;49.600;6.138;2023-06-10T14:44:20;28.70;50.70
37646;DHT22;23489;49.600;6.138;2023-06-10T14:46:46;28.70;50.70
37646;DHT22;23489;49.600;6.138;2023-06-10T14:49:11;28.80;50.60
37646;DHT22;23489;49.600;6.138;2023-06-10T14:51:36;28.60;50.80
37646;DHT22;23489;49.600;6.138;2023-06-10T14:54:02;28.70;50.00
37646;DHT22;23489;49.600;6.138;2023-06-10T14:56:27;28.80;49.80
37646;DHT22;23489;49.600;6.138;2023-06-10T14:58:53;28.70;49.20
37646;DHT22;23489;49.600;6.138;2023-06-10T15:01:19;28.60;49.20
37646;DHT22;23489;49.600;6.138;2023-06-10T15:03:44;28.60;49.20
37646;DHT22;23489;49.600;6.138;2023-06-10T15:06:10;28.70;49.50
37646;DHT22;23489;49.600;6.138;2023-06-10T15:08:35;28.70;48.40
37646;DHT22;23489;49.600;6.138;2023-06-10T15:11:01;28.80;48.30
37646;DHT22;23489;49.600;6.138;2023-06-10T15:13:27;28.70;47.90
37646;DHT22;23489;49.600;6.138;2023-06-10T15:15:53;28.60;48.70
37646;DHT22;23489;49.600;6.138;2023-06-10T15:18:18;28.50;48.90
37646;DHT22;23489;49.600;6.138;2023-06-10T15:20:44;28.50;50.00
37646;DHT22;23489;49.600;6.138;2023-06-10T15:23:09;28.50;50.40
37646;DHT22;23489;49.600;6.138;2023-06-10T15:25:35;28.50;50.60
37646;DHT22;23489;49.600;6.138;2023-06-10T15:28:01;28.20;50.90
37646;DHT22;23489;49.600;6.138;2023-06-10T15:30:26;28.10;51.40
37646;DHT22;23489;49.600;6.138;2023-06-10T15:32:52;28.10;51.60
37646;DHT22;23489;49.600;6.138;2023-06-10T15:35:17;28.00;52.00
37646;DHT22;23489;49.600;6.138;2023-06-10T15:37:43;28.00;51.50
37646;DHT22;23489;49.600;6.138;2023-06-10T15:40:08;28.00;51.70
37646;DHT22;23489;49.600;6.138;2023-06-10T15:42:34;28.00;51.50
37646;DHT22;23489;49.600;6.138;2023-06-10T15:44:59;28.10;51.80